Weather Forecast for Al Ain Airport 
Wednesday, August 23, 2017 (17:38 UTC)
Al Ain International Airport
ICAO Code: OMAL
IATA Code: AAN
  • METAR OMAL 231700Z 08009KT CAVOK 36/21 Q1002 NOSIG=
  • TAF OMAL 231700Z 2318/2500 08009KT 8000 NSC PROB30 TEMPO 2323/2405 16016KT 4000 DU=
AL AIN (OMAL) 5 DAY OUTLOOK:
Thursday, 24/Aug/2017
HIGH:
43°C
LOW:
30°C
MIN. VISIBILITY:
7000 meters
WIND (DIRECTION/SPEED):
SE at 7 - 10 knots (13 - 19 km/h) becoming NE at 10 - 15 knots (19 - 28 km/h)
WEATHER:
Partly Cloudy
RAINFALL:
Nil
Friday, 25/Aug/2017
HIGH:
43°C
LOW:
30°C
MIN. VISIBILITY:
6000 meters
WIND (DIRECTION/SPEED):
SSE at 7 - 10 knots (13 - 19 km/h) becoming NNE at 7 - 10 knots (13 - 19 km/h)
WEATHER:
Sunny, becoming partly cloudy later.
RAINFALL:
Nil
Saturday, 26/Aug/2017
HIGH:
43°C
LOW:
30°C
MIN. VISIBILITY:
7000 meters
WIND (DIRECTION/SPEED):
SSE at 7 - 10 knots (13 - 19 km/h) becoming NE at 7 - 10 knots (13 - 19 km/h)
WEATHER:
Partly Cloudy
RAINFALL:
Nil
Sunday, 27/Aug/2017
HIGH:
42°C
LOW:
30°C
MIN. VISIBILITY:
7000 meters
WIND (DIRECTION/SPEED):
SE at 7 - 10 knots (13 - 19 km/h) becoming ENE at 10 - 15 knots (19 - 28 km/h)
WEATHER:
Sunny
RAINFALL:
Nil
Monday, 28/Aug/2017
HIGH:
42°C
LOW:
29°C
MIN. VISIBILITY:
6000 meters
WIND (DIRECTION/SPEED):
SSE at 10 - 15 knots (19 - 28 km/h) becoming NW at 10 - 15 knots (19 - 28 km/h)
WEATHER:
Partly Cloudy.
RAINFALL:
Nil